Time;durP1;ratioP1;P1;durP2;ratioP2;P2;SDS_P1;SDS_P2;PMS_P1;PMS_P2;Temp;Humidity;BMP_temperature;BMP_pressure;BME280_temperature;BME280_humidity;BME280_pressure;Samples;Min_cycle;Max_cycle;Signal;HPM_P1;HPM_P2
2023/03/18 00:00:22;;;;;;;;;;;;;;;22.14;44.93;100259.00;7256946;19;153683;-54
2023/03/18 00:02:48;;;;;;;;;;;;;;;22.15;45.02;100254.22;7259137;19;153833;-54
2023/03/18 00:05:15;;;;;;;;;;;;;;;22.16;44.61;100253.88;7264162;19;153545;-55
2023/03/18 00:07:42;;;;;;;;;;;;;;;22.17;44.50;100251.88;7257085;19;153560;-55
2023/03/18 00:10:10;;;;;;;;;;;;;;;22.18;44.78;100250.72;7253288;19;154153;-55
2023/03/18 00:12:38;;;;;;;;;;;;;;;22.19;45.05;100252.38;7256148;19;153529;-54
2023/03/18 00:15:06;;;;;;;;;;;;;;;22.18;44.93;100257.16;7256440;19;153168;-54
2023/03/18 00:17:33;;;;;;;;;;;;;;;22.20;44.89;100261.66;7252971;19;152345;-54
2023/03/18 00:20:04;;;;;;;;;;;;;;;22.19;44.71;100255.19;7254947;19;154402;-54
2023/03/18 00:22:35;;;;;;;;;;;;;;;22.20;45.29;100264.47;7258667;19;152625;-54
2023/03/18 00:25:03;;;;;;;;;;;;;;;22.18;45.13;100251.53;7257727;19;154474;-54
2023/03/18 00:27:30;;;;;;;;;;;;;;;22.19;45.02;100249.56;7263714;19;154405;-54
2023/03/18 00:29:57;;;;;;;;;;;;;;;22.18;44.86;100248.72;7261569;19;153937;-55
2023/03/18 00:32:25;;;;;;;;;;;;;;;22.19;45.07;100252.38;7256292;19;153198;-54
2023/03/18 00:34:52;;;;;;;;;;;;;;;22.17;45.30;100249.06;7257145;19;153549;-55
2023/03/18 00:37:29;;;;;;;;;;;;;;;22.17;45.28;100249.88;7257002;19;153608;-54
2023/03/18 00:40:04;;;;;;;;;;;;;;;22.16;45.71;100247.44;7256054;19;153880;-55
2023/03/18 00:42:37;;;;;;;;;;;;;;;22.15;45.32;100245.75;7259114;19;153042;-55
2023/03/18 00:45:06;;;;;;;;;;;;;;;22.13;45.62;100243.28;7263529;19;154512;-55
2023/03/18 00:47:33;;;;;;;;;;;;;;;22.14;45.88;100255.38;7263870;19;154258;-55
2023/03/18 00:50:00;;;;;;;;;;;;;;;22.12;46.30;100243.63;7274500;19;153297;-55
2023/03/18 00:52:27;;;;;;;;;;;;;;;22.11;46.32;100256.03;7264154;19;154349;-54
2023/03/18 00:54:57;;;;;;;;;;;;;;;22.12;46.88;100254.88;7263326;19;153288;-54
2023/03/18 00:57:24;;;;;;;;;;;;;;;22.11;46.65;100251.25;7261117;19;153871;-54
2023/03/18 00:59:50;;;;;;;;;;;;;;;22.10;46.79;100254.38;7264405;19;154886;-54
2023/03/18 01:02:17;;;;;;;;;;;;;;;22.08;46.68;100257.53;7263904;19;153160;-56
2023/03/18 01:04:44;;;;;;;;;;;;;;;22.08;46.91;100253.88;7265990;19;153158;-56
2023/03/18 01:07:12;;;;;;;;;;;;;;;22.07;46.81;100255.06;7261226;19;154421;-56
2023/03/18 01:09:39;;;;;;;;;;;;;;;22.06;46.61;100256.22;7262652;19;152380;-56
2023/03/18 01:12:07;;;;;;;;;;;;;;;22.03;46.65;100254.09;7270367;19;154308;-56
2023/03/18 01:14:35;;;;;;;;;;;;;;;22.03;46.72;100254.09;7265340;19;153785;-54
2023/03/18 01:17:02;;;;;;;;;;;;;;;21.99;47.10;100251.09;7261951;19;153431;-54
2023/03/18 01:19:29;;;;;;;;;;;;;;;21.99;46.99;100247.47;7260181;19;154583;-54
2023/03/18 01:21:56;;;;;;;;;;;;;;;21.97;47.35;100249.78;7263365;19;153725;-54
2023/03/18 01:24:22;;;;;;;;;;;;;;;21.95;47.76;100247.31;7262519;19;152802;-55
2023/03/18 01:26:49;;;;;;;;;;;;;;;21.93;47.88;100238.41;7261078;19;154398;-56
2023/03/18 01:29:16;;;;;;;;;;;;;;;21.93;48.24;100240.38;7262120;19;152029;-55
2023/03/18 01:31:44;;;;;;;;;;;;;;;21.89;48.38;100236.56;7268956;19;153718;-53
2023/03/18 01:34:11;;;;;;;;;;;;;;;21.87;48.60;100245.31;7262807;19;153910;-54
2023/03/18 01:36:37;;;;;;;;;;;;;;;21.87;48.82;100239.69;7261155;19;153503;-54
2023/03/18 01:39:05;;;;;;;;;;;;;;;21.85;49.01;100235.56;7255679;19;156033;-54
2023/03/18 01:41:32;;;;;;;;;;;;;;;21.84;49.68;100233.91;7262883;19;152404;-54
2023/03/18 01:44:00;;;;;;;;;;;;;;;21.81;49.22;100226.97;7263134;19;153733;-54
2023/03/18 01:46:38;;;;;;;;;;;;;;;21.79;49.81;100226.50;7262748;19;154175;-55
2023/03/18 01:49:12;;;;;;;;;;;;;;;21.76;49.91;100231.97;7261948;19;152297;-54
2023/03/18 01:51:42;;;;;;;;;;;;;;;21.74;50.00;100221.03;7261250;19;153127;-55
2023/03/18 01:54:11;;;;;;;;;;;;;;;21.68;50.24;100220.38;7265647;18;154576;-54
2023/03/18 01:56:39;;;;;;;;;;;;;;;21.69;50.28;100226.84;7258467;19;153980;-54
2023/03/18 01:59:06;;;;;;;;;;;;;;;21.62;50.14;100221.72;7256702;19;154368;-54
2023/03/18 02:01:38;;;;;;;;;;;;;;;21.59;49.95;100219.56;7261642;19;153128;-54
2023/03/18 02:04:06;;;;;;;;;;;;;;;21.55;49.86;100226.19;7258877;19;153760;-54
2023/03/18 02:06:33;;;;;;;;;;;;;;;21.55;49.89;100224.22;7256382;19;156169;-54
2023/03/18 02:09:00;;;;;;;;;;;;;;;21.53;49.72;100222.91;7259013;19;154060;-54
2023/03/18 02:11:29;;;;;;;;;;;;;;;21.53;50.32;100218.09;7260565;19;155050;-54
2023/03/18 02:13:56;;;;;;;;;;;;;;;21.49;50.15;100228.34;7263207;19;154500;-55
2023/03/18 02:16:26;;;;;;;;;;;;;;;21.46;50.24;100219.75;7282057;19;152209;-55
2023/03/18 02:18:59;;;;;;;;;;;;;;;21.42;50.58;100225.22;7266259;19;154694;-54
2023/03/18 02:21:41;;;;;;;;;;;;;;;21.43;50.74;100220.44;7260479;19;154098;-55
2023/03/18 02:24:16;;;;;;;;;;;;;;;21.40;50.67;100219.09;7260047;19;153327;-54
2023/03/18 02:26:55;;;;;;;;;;;;;;;21.40;50.68;100218.25;7259036;19;155145;-55
2023/03/18 02:29:23;;;;;;;;;;;;;;;21.36;50.87;100212.50;7260246;19;152447;-55
2023/03/18 02:31:50;;;;;;;;;;;;;;;21.36;50.63;100211.66;7260225;19;153525;-54
2023/03/18 02:34:17;;;;;;;;;;;;;;;21.34;50.73;100214.00;7258455;19;154092;-54
2023/03/18 02:36:44;;;;;;;;;;;;;;;21.33;50.88;100218.78;7258569;19;154298;-54
2023/03/18 02:39:13;;;;;;;;;;;;;;;21.30;50.92;100211.81;7263700;19;153991;-54
2023/03/18 02:41:40;;;;;;;;;;;;;;;21.28;50.74;100211.34;7260014;19;153054;-54
2023/03/18 02:44:07;;;;;;;;;;;;;;;21.27;50.74;100212.50;7261320;19;152996;-54
2023/03/18 02:46:34;;;;;;;;;;;;;;;21.25;50.67;100208.38;7262247;19;153093;-54
2023/03/18 02:49:02;;;;;;;;;;;;;;;21.27;50.94;100217.28;7258987;19;153260;-54
2023/03/18 02:51:29;;;;;;;;;;;;;;;21.33;51.03;100213.16;7260681;19;153065;-54
2023/03/18 02:53:59;;;;;;;;;;;;;;;21.29;50.88;100210.19;7259243;19;155511;-55
2023/03/18 02:56:26;;;;;;;;;;;;;;;21.30;51.10;100222.25;7259150;19;153904;-54
2023/03/18 02:58:53;;;;;;;;;;;;;;;21.27;50.74;100220.94;7258196;19;153793;-54
2023/03/18 03:01:21;;;;;;;;;;;;;;;21.21;50.86;100218.63;7265152;19;153317;-54
2023/03/18 03:03:48;;;;;;;;;;;;;;;21.20;50.86;100220.63;7258432;19;153814;-54
2023/03/18 03:06:14;;;;;;;;;;;;;;;21.18;50.88;100216.47;7258826;19;153378;-54
2023/03/18 03:08:41;;;;;;;;;;;;;;;21.17;51.01;100217.63;7254948;19;152776;-54
2023/03/18 03:11:09;;;;;;;;;;;;;;;21.14;50.87;100210.69;7260625;19;153723;-54
2023/03/18 03:13:36;;;;;;;;;;;;;;;21.13;51.15;100214.66;7260216;19;154876;-54
2023/03/18 03:16:03;;;;;;;;;;;;;;;21.12;50.85;100217.78;7260180;19;153665;-55
2023/03/18 03:18:30;;;;;;;;;;;;;;;21.13;51.13;100225.88;7258145;19;154266;-59
2023/03/18 03:20:57;;;;;;;;;;;;;;;21.10;50.83;100223.72;7260408;19;153583;-54
2023/03/18 03:23:24;;;;;;;;;;;;;;;21.08;51.08;100220.38;7265107;19;153461;-54
2023/03/18 03:25:50;;;;;;;;;;;;;;;21.07;50.84;100220.75;7258321;19;154778;-55
2023/03/18 03:28:17;;;;;;;;;;;;;;;21.04;51.00;100224.19;7257274;19;153078;-55
2023/03/18 03:30:44;;;;;;;;;;;;;;;21.04;51.10;100227.00;7260344;19;153328;-55
2023/03/18 03:33:11;;;;;;;;;;;;;;;21.00;51.00;100226.84;7254355;19;153357;-55
2023/03/18 03:35:38;;;;;;;;;;;;;;;20.98;50.83;100226.34;7259734;19;153272;-55
2023/03/18 03:38:05;;;;;;;;;;;;;;;20.98;50.82;100231.97;7256293;19;153630;-55
2023/03/18 03:40:32;;;;;;;;;;;;;;;20.97;50.93;100233.13;7255450;19;154267;-55
2023/03/18 03:42:59;;;;;;;;;;;;;;;20.96;50.84;100234.28;7265968;19;152728;-54
2023/03/18 03:45:26;;;;;;;;;;;;;;;20.95;51.00;100227.00;7256395;19;155841;-54
2023/03/18 03:47:53;;;;;;;;;;;;;;;20.94;51.07;100227.34;7260102;19;153985;-54
2023/03/18 03:50:20;;;;;;;;;;;;;;;20.92;51.25;100238.06;7261675;19;153337;-55
2023/03/18 03:52:48;;;;;;;;;;;;;;;20.89;50.87;100231.13;7254696;19;153600;-55
2023/03/18 03:55:17;;;;;;;;;;;;;;;20.89;50.82;100235.94;7257809;19;152736;-55
2023/03/18 03:57:44;;;;;;;;;;;;;;;20.87;50.86;100239.06;7260109;19;153772;-55
2023/03/18 04:00:13;;;;;;;;;;;;;;;20.86;51.15;100237.38;7258020;19;153384;-55
2023/03/18 04:02:42;;;;;;;;;;;;;;;20.83;50.89;100230.47;7258572;19;153028;-55
2023/03/18 04:05:10;;;;;;;;;;;;;;;20.84;50.87;100239.72;7263490;19;152832;-54
2023/03/18 04:07:37;;;;;;;;;;;;;;;20.82;50.82;100242.84;7260687;19;153139;-55
2023/03/18 04:10:04;;;;;;;;;;;;;;;20.81;50.89;100240.34;7256108;19;153043;-54
2023/03/18 04:12:31;;;;;;;;;;;;;;;20.79;51.09;100237.91;7257165;19;153983;-55
2023/03/18 04:14:58;;;;;;;;;;;;;;;20.78;50.92;100239.03;7256376;19;152375;-55
2023/03/18 04:17:25;;;;;;;;;;;;;;;20.77;51.28;100239.34;7256098;19;153785;-54
2023/03/18 04:19:51;;;;;;;;;;;;;;;20.77;51.14;100242.16;7262951;19;153273;-54
2023/03/18 04:22:18;;;;;;;;;;;;;;;20.74;51.16;100240.84;7265060;19;152149;-54
2023/03/18 04:24:45;;;;;;;;;;;;;;;20.74;51.29;100237.22;7266371;19;153890;-54
2023/03/18 04:27:11;;;;;;;;;;;;;;;20.74;51.03;100240.03;7269067;19;153921;-54
2023/03/18 04:29:38;;;;;;;;;;;;;;;20.73;51.02;100233.56;7263224;19;153549;-54
2023/03/18 04:32:05;;;;;;;;;;;;;;;20.71;51.14;100238.72;7261692;19;153510;-55
2023/03/18 04:34:32;;;;;;;;;;;;;;;20.69;51.59;100249.41;7261949;19;154456;-54
2023/03/18 04:36:59;;;;;;;;;;;;;;;20.69;51.68;100241.00;7262781;19;153379;-54
2023/03/18 04:39:25;;;;;;;;;;;;;;;20.68;51.75;100242.16;7259689;19;153555;-54
2023/03/18 04:41:53;;;;;;;;;;;;;;;20.67;51.73;100245.31;7263687;19;153112;-54
2023/03/18 04:44:20;;;;;;;;;;;;;;;20.66;51.24;100246.44;7262758;19;153862;-54
2023/03/18 04:46:46;;;;;;;;;;;;;;;20.64;51.79;100243.13;7261773;19;155683;-54
2023/03/18 04:49:13;;;;;;;;;;;;;;;20.65;51.43;100233.56;7270573;19;153878;-54
2023/03/18 04:51:40;;;;;;;;;;;;;;;20.62;51.96;100235.06;7264116;19;153626;-54
2023/03/18 04:54:07;;;;;;;;;;;;;;;20.61;51.67;100241.81;7262368;19;153407;-54
2023/03/18 04:56:34;;;;;;;;;;;;;;;20.59;51.76;100240.47;7262576;19;153561;-56
2023/03/18 04:59:00;;;;;;;;;;;;;;;20.58;51.76;100242.44;7260931;19;154311;-53
2023/03/18 05:01:27;;;;;;;;;;;;;;;20.59;51.71;100237.66;7257512;19;153457;-53
2023/03/18 05:03:54;;;;;;;;;;;;;;;20.57;51.80;100246.44;7261198;19;155265;-54
2023/03/18 05:06:22;;;;;;;;;;;;;;;20.56;51.65;100239.16;7259730;19;154834;-53
2023/03/18 05:08:48;;;;;;;;;;;;;;;20.55;51.53;100243.09;7261442;19;152745;-54
2023/03/18 05:11:16;;;;;;;;;;;;;;;20.56;52.12;100235.53;7267866;19;154642;-54
2023/03/18 05:13:43;;;;;;;;;;;;;;;20.55;51.90;100237.50;7262830;19;154019;-53
2023/03/18 05:16:10;;;;;;;;;;;;;;;20.54;52.35;100238.63;7263576;19;153589;-54
2023/03/18 05:18:37;;;;;;;;;;;;;;;20.52;52.16;100242.94;7258379;19;155127;-54
2023/03/18 05:21:06;;;;;;;;;;;;;;;20.51;52.30;100230.88;7261942;19;152658;-55
2023/03/18 05:23:40;;;;;;;;;;;;;;;20.51;51.97;100227.25;7256990;19;153918;-55
2023/03/18 05:26:06;;;;;;;;;;;;;;;20.51;51.84;100225.28;7259076;19;154295;-55
2023/03/18 05:28:33;;;;;;;;;;;;;;;20.49;52.32;100221.94;7260393;19;154146;-56
2023/03/18 05:31:04;;;;;;;;;;;;;;;20.48;51.99;100214.72;7259947;19;154856;-55
2023/03/18 05:33:37;;;;;;;;;;;;;;;20.48;51.95;100214.72;7266495;19;153404;-55
2023/03/18 05:36:03;;;;;;;;;;;;;;;20.47;51.87;100215.84;7262109;19;154575;-56
2023/03/18 05:38:30;;;;;;;;;;;;;;;20.46;52.20;100208.56;7257979;19;154030;-55
2023/03/18 05:40:57;;;;;;;;;;;;;;;20.45;51.98;100211.69;7260977;19;152189;-56
2023/03/18 05:43:25;;;;;;;;;;;;;;;20.43;52.26;100220.47;7260712;19;152808;-55
2023/03/18 05:45:51;;;;;;;;;;;;;;;20.43;52.31;100220.47;7258546;19;154140;-55
2023/03/18 05:48:18;;;;;;;;;;;;;;;20.44;52.08;100227.75;7260641;19;154229;-56
2023/03/18 05:50:45;;;;;;;;;;;;;;;20.41;52.31;100223.59;7256676;19;153559;-55
2023/03/18 05:53:15;;;;;;;;;;;;;;;20.41;52.36;100219.94;7266664;19;154398;-55
2023/03/18 05:55:42;;;;;;;;;;;;;;;20.40;51.98;100219.13;7258629;19;153851;-55
2023/03/18 05:58:09;;;;;;;;;;;;;;;20.38;52.06;100218.63;7259545;19;154341;-55
2023/03/18 06:00:36;;;;;;;;;;;;;;;20.38;52.53;100221.44;7259372;19;152341;-55
2023/03/18 06:03:03;;;;;;;;;;;;;;;20.36;52.55;100212.50;7260835;19;152877;-55
2023/03/18 06:05:30;;;;;;;;;;;;;;;20.36;52.60;100220.94;7259575;19;153479;-54
2023/03/18 06:07:58;;;;;;;;;;;;;;;20.36;52.31;100220.94;7261599;19;154130;-55
2023/03/18 06:10:25;;;;;;;;;;;;;;;20.35;52.42;100222.06;7261214;19;154887;-55
2023/03/18 06:12:53;;;;;;;;;;;;;;;20.35;52.32;100232.50;7260082;19;154396;-55
2023/03/18 06:15:20;;;;;;;;;;;;;;;20.33;52.28;100238.41;7267510;19;155183;-56
2023/03/18 06:17:48;;;;;;;;;;;;;;;20.32;52.27;100241.53;7258798;19;153364;-55
2023/03/18 06:20:14;;;;;;;;;;;;;;;20.32;52.31;100244.34;7257599;19;153228;-55
2023/03/18 06:22:42;;;;;;;;;;;;;;;20.30;52.57;100247.50;7260604;19;152995;-55
2023/03/18 06:25:09;;;;;;;;;;;;;;;20.30;52.37;100249.47;7258003;19;153538;-55
2023/03/18 06:27:36;;;;;;;;;;;;;;;20.27;52.49;100247.25;7261815;19;154342;-55
2023/03/18 06:30:04;;;;;;;;;;;;;;;20.27;52.52;100248.09;7259322;19;153384;-56
2023/03/18 06:32:31;;;;;;;;;;;;;;;20.33;52.78;100246.00;7259734;19;152506;-57
2023/03/18 06:34:58;;;;;;;;;;;;;;;20.29;52.74;100244.97;7257771;19;154338;-55
2023/03/18 06:37:25;;;;;;;;;;;;;;;20.31;52.70;100251.09;7266244;19;153157;-55
2023/03/18 06:39:52;;;;;;;;;;;;;;;20.29;52.81;100250.59;7256492;19;153326;-55
2023/03/18 06:42:19;;;;;;;;;;;;;;;20.25;52.52;100250.41;7259778;19;153682;-56
2023/03/18 06:44:49;;;;;;;;;;;;;;;20.24;52.59;100250.72;7258040;19;154470;-56
2023/03/18 06:47:17;;;;;;;;;;;;;;;20.23;52.37;100263.09;7257914;19;153247;-55
2023/03/18 06:49:44;;;;;;;;;;;;;;;20.21;52.53;100257.81;7258072;19;153700;-55
2023/03/18 06:52:12;;;;;;;;;;;;;;;20.21;52.66;100260.63;7255809;19;154109;-55
2023/03/18 06:54:39;;;;;;;;;;;;;;;20.22;52.36;100264.22;7257358;19;153420;-55
2023/03/18 06:57:07;;;;;;;;;;;;;;;20.20;52.63;100258.13;7259254;19;154536;-55
2023/03/18 06:59:34;;;;;;;;;;;;;;;20.17;52.57;100268.00;7263723;19;153973;-56
2023/03/18 07:02:01;;;;;;;;;;;;;;;20.17;52.70;100262.41;7258001;19;152288;-56
2023/03/18 07:04:28;;;;;;;;;;;;;;;20.18;52.60;100268.84;7257565;19;153987;-55
2023/03/18 07:06:56;;;;;;;;;;;;;;;20.15;52.67;100261.91;7261897;19;152549;-56
2023/03/18 07:09:23;;;;;;;;;;;;;;;20.15;52.71;100269.50;7261110;19;154395;-55
2023/03/18 07:11:50;;;;;;;;;;;;;;;20.14;52.45;100279.88;7260157;19;153171;-55
2023/03/18 07:14:17;;;;;;;;;;;;;;;20.14;52.78;100276.25;7258688;19;153255;-55
2023/03/18 07:16:44;;;;;;;;;;;;;;;20.11;52.54;100280.53;7257929;19;154150;-55
2023/03/18 07:19:11;;;;;;;;;;;;;;;20.11;52.97;100282.50;7256481;19;155832;-54
2023/03/18 07:21:39;;;;;;;;;;;;;;;20.11;52.56;100283.34;7263311;19;153776;-55
2023/03/18 07:24:06;;;;;;;;;;;;;;;20.09;52.69;100282.81;7253044;19;155680;-55
2023/03/18 07:26:33;;;;;;;;;;;;;;;20.10;52.49;100281.66;7258336;19;152035;-55
2023/03/18 07:29:00;;;;;;;;;;;;;;;20.09;52.73;100273.56;7255633;19;154330;-55
2023/03/18 07:31:27;;;;;;;;;;;;;;;20.07;52.94;100270.28;7255198;19;153872;-55
2023/03/18 07:33:53;;;;;;;;;;;;;;;20.06;53.00;100280.66;7257112;19;153318;-54
2023/03/18 07:36:20;;;;;;;;;;;;;;;20.06;52.83;100280.66;7259211;19;153061;-55
2023/03/18 07:38:47;;;;;;;;;;;;;;;20.06;52.74;100286.28;7255323;19;153291;-54
2023/03/18 07:41:14;;;;;;;;;;;;;;;20.06;52.75;100291.88;7265164;19;153530;-54
2023/03/18 07:43:42;;;;;;;;;;;;;;;20.05;52.93;100286.59;7255591;19;153379;-54
2023/03/18 07:46:09;;;;;;;;;;;;;;;20.03;52.85;100286.94;7258722;19;154125;-54
2023/03/18 07:48:35;;;;;;;;;;;;;;;20.04;53.04;100296.13;7257012;19;153330;-54
2023/03/18 07:51:02;;;;;;;;;;;;;;;20.04;53.21;100290.53;7256977;19;154178;-55
2023/03/18 07:53:29;;;;;;;;;;;;;;;20.02;53.03;100290.03;7255310;19;153678;-54
2023/03/18 07:55:56;;;;;;;;;;;;;;;20.02;53.23;100292.84;7256354;19;154086;-54
2023/03/18 07:58:23;;;;;;;;;;;;;;;20.02;53.39;100292.84;7255670;19;154323;-54
2023/03/18 08:00:51;;;;;;;;;;;;;;;20.01;53.32;100294.00;7256476;19;153173;-54
2023/03/18 08:03:18;;;;;;;;;;;;;;;20.00;53.42;100298.75;7262993;19;154144;-54
2023/03/18 08:05:44;;;;;;;;;;;;;;;19.98;53.30;100298.28;7254869;19;154127;-54
2023/03/18 08:08:11;;;;;;;;;;;;;;;19.98;53.42;100301.91;7258409;19;153658;-55
2023/03/18 08:10:38;;;;;;;;;;;;;;;19.97;53.62;100303.06;7254491;19;154523;-55
2023/03/18 08:13:04;;;;;;;;;;;;;;;19.97;53.44;100305.84;7257306;19;152110;-54
2023/03/18 08:15:31;;;;;;;;;;;;;;;19.97;53.78;100305.84;7257995;19;154374;-54
2023/03/18 08:17:58;;;;;;;;;;;;;;;19.96;53.97;100301.38;7256236;19;154896;-54
2023/03/18 08:20:25;;;;;;;;;;;;;;;19.96;53.94;100309.81;7253628;19;153724;-54
2023/03/18 08:22:52;;;;;;;;;;;;;;;19.96;53.87;100312.59;7255118;19;154778;-54
2023/03/18 08:25:20;;;;;;;;;;;;;;;19.95;53.87;100302.53;7260996;19;153963;-54
2023/03/18 08:27:47;;;;;;;;;;;;;;;19.96;53.92;100312.59;7258110;19;153669;-55
2023/03/18 08:30:15;;;;;;;;;;;;;;;19.95;54.07;100310.09;7254797;19;153859;-55
2023/03/18 08:32:42;;;;;;;;;;;;;;;19.94;53.70;100305.69;7256745;19;153172;-55
2023/03/18 08:35:10;;;;;;;;;;;;;;;19.93;53.72;100304.00;7255735;19;155484;-55
2023/03/18 08:37:36;;;;;;;;;;;;;;;19.92;53.91;100305.16;7256361;19;154530;-55
2023/03/18 08:40:03;;;;;;;;;;;;;;;19.90;54.13;100305.47;7252156;19;152669;-55
2023/03/18 08:42:30;;;;;;;;;;;;;;;19.89;53.98;100298.22;7256926;19;154063;-55
2023/03/18 08:44:57;;;;;;;;;;;;;;;19.90;53.69;100299.03;7254852;19;153442;-54
2023/03/18 08:47:24;;;;;;;;;;;;;;;19.89;53.74;100295.41;7263094;19;152292;-55
2023/03/18 08:49:50;;;;;;;;;;;;;;;19.87;54.13;100294.91;7254167;19;153454;-54
2023/03/18 08:52:17;;;;;;;;;;;;;;;19.85;53.83;100299.97;7255671;19;154094;-54
2023/03/18 08:54:44;;;;;;;;;;;;;;;19.87;53.90;100294.06;7253787;19;153618;-54
2023/03/18 08:57:11;;;;;;;;;;;;;;;19.85;53.72;100294.38;7251954;19;154505;-54
2023/03/18 08:59:38;;;;;;;;;;;;;;;19.86;54.03;100293.22;7254068;19;154241;-55
2023/03/18 09:02:04;;;;;;;;;;;;;;;19.85;54.07;100291.56;7255815;19;153014;-54
2023/03/18 09:04:31;;;;;;;;;;;;;;;19.85;53.98;100297.19;7257288;19;154044;-55
2023/03/18 09:07:00;;;;;;;;;;;;;;;19.86;54.11;100298.00;7262725;19;153783;-55
2023/03/18 09:09:26;;;;;;;;;;;;;;;19.86;54.17;100298.00;7264544;19;153395;-55
2023/03/18 09:12:08;;;;;;;;;;;;;;;19.86;54.48;100292.41;7262954;19;152836;-56
2023/03/18 09:14:35;;;;;;;;;;;;;;;19.84;54.19;100292.75;7261879;19;152790;-54
2023/03/18 09:17:01;;;;;;;;;;;;;;;19.83;54.54;100296.69;7257545;19;153933;-54
2023/03/18 09:19:28;;;;;;;;;;;;;;;19.83;54.25;100299.50;7261509;19;153940;-54
2023/03/18 09:21:55;;;;;;;;;;;;;;;19.84;54.39;100300.31;7259404;19;154855;-54
2023/03/18 09:24:21;;;;;;;;;;;;;;;19.86;54.31;100304.44;7262495;19;156082;-54
2023/03/18 09:26:48;;;;;;;;;;;;;;;19.87;54.41;100294.06;7272673;19;153937;-60
2023/03/18 09:29:15;;;;;;;;;;;;;;;19.95;54.40;100298.91;7263578;19;154097;-54
2023/03/18 09:31:42;;;;;;;;;;;;;;;19.92;54.01;100297.56;7267778;19;154305;-55
2023/03/18 09:34:12;;;;;;;;;;;;;;;19.71;52.51;100302.06;7260427;19;153253;-54
2023/03/18 09:36:39;;;;;;;;;;;;;;;19.71;52.86;100296.44;7259522;19;154211;-54
2023/03/18 09:39:07;;;;;;;;;;;;;;;19.66;53.53;100295.75;7258663;19;153785;-54
2023/03/18 09:41:37;;;;;;;;;;;;;;;19.66;53.25;100290.13;7259828;19;153217;-54
2023/03/18 09:44:20;;;;;;;;;;;;;;;19.66;53.26;100288.16;7258847;19;153813;-54
2023/03/18 09:46:56;;;;;;;;;;;;;;;19.65;53.70;100297.72;7259621;19;152026;-54
2023/03/18 09:49:32;;;;;;;;;;;;;;;19.67;53.45;100295.41;7257727;19;154544;-54
2023/03/18 09:52:08;;;;;;;;;;;;;;;19.68;53.78;100297.06;7266428;19;153405;-54
2023/03/18 09:54:41;;;;;;;;;;;;;;;19.69;53.98;100293.13;7258308;19;153897;-54
2023/03/18 09:57:11;;;;;;;;;;;;;;;19.68;53.64;100296.22;7256620;19;153275;-55
2023/03/18 09:59:44;;;;;;;;;;;;;;;19.69;53.84;100301.53;7260087;19;153361;-54
2023/03/18 10:02:21;;;;;;;;;;;;;;;19.69;53.40;100300.69;7258866;19;152767;-54
2023/03/18 10:04:51;;;;;;;;;;;;;;;19.70;54.06;100296.75;7256435;19;153431;-55
2023/03/18 10:07:21;;;;;;;;;;;;;;;19.70;53.67;100302.38;7259039;19;153901;-54
2023/03/18 10:09:53;;;;;;;;;;;;;;;19.69;53.74;100301.53;7258529;19;152573;-54
2023/03/18 10:12:30;;;;;;;;;;;;;;;19.71;53.61;100302.06;7261439;19;153942;-54
2023/03/18 10:15:05;;;;;;;;;;;;;;;19.78;53.98;100313.63;7268647;19;152912;-54
2023/03/18 10:17:40;;;;;;;;;;;;;;;19.75;53.83;100314.28;7257655;19;153671;-54
2023/03/18 10:20:30;;;;;;;;;;;;;;;19.78;53.47;100307.19;7256463;19;151866;-54
2023/03/18 10:22:56;;;;;;;;;;;;;;;19.87;52.62;100308.91;7258935;19;153828;-55
2023/03/18 10:25:23;;;;;;;;;;;;;;;19.96;52.20;100307.00;7257987;19;153380;-54
2023/03/18 10:27:56;;;;;;;;;;;;;;;20.06;52.20;100299.47;7261169;19;153399;-55
2023/03/18 10:30:41;;;;;;;;;;;;;;;20.14;51.64;100304.28;7258213;19;155396;-55
2023/03/18 10:33:16;;;;;;;;;;;;;;;20.12;51.66;100304.63;7258353;19;155739;-56
2023/03/18 10:35:49;;;;;;;;;;;;;;;20.18;51.46;100303.31;7260956;19;153273;-55
2023/03/18 10:38:18;;;;;;;;;;;;;;;20.24;51.49;100309.63;7265700;19;152833;-55
2023/03/18 10:40:46;;;;;;;;;;;;;;;20.31;51.73;100305.22;7255087;19;154356;-55
2023/03/18 10:43:16;;;;;;;;;;;;;;;20.36;52.05;100307.91;7259108;19;154172;-55
2023/03/18 10:45:44;;;;;;;;;;;;;;;20.45;51.72;100315.53;7258700;19;154216;-55
2023/03/18 10:48:11;;;;;;;;;;;;;;;20.49;51.38;100314.56;7263191;19;153022;-55
2023/03/18 10:50:50;;;;;;;;;;;;;;;20.58;50.95;100318.22;7265412;19;153880;-54
2023/03/18 10:53:24;;;;;;;;;;;;;;;20.64;50.78;100308.53;7263109;19;153977;-54
2023/03/18 10:55:51;;;;;;;;;;;;;;;20.70;51.03;100307.22;7256843;19;153720;-54
2023/03/18 10:58:19;;;;;;;;;;;;;;;20.74;50.43;100310.22;7259808;19;155032;-54
2023/03/18 11:00:46;;;;;;;;;;;;;;;20.79;50.48;100305.28;7263028;19;153965;-54
2023/03/18 11:03:18;;;;;;;;;;;;;;;20.84;50.32;100304.28;7257933;19;154582;-54
2023/03/18 11:05:45;;;;;;;;;;;;;;;20.90;49.86;100307.75;7253922;19;153833;-54
2023/03/18 11:08:33;;;;;;;;;;;;;;;20.94;49.86;100305.97;7259641;19;153352;-53
2023/03/18 11:11:23;;;;;;;;;;;;;;;20.99;49.53;100312.25;7257624;19;152908;-54
2023/03/18 11:13:54;;;;;;;;;;;;;;;21.04;49.62;100312.09;7256346;19;154835;-54
2023/03/18 11:16:24;;;;;;;;;;;;;;;21.09;49.44;100313.91;7261847;19;152987;-54
2023/03/18 11:18:51;;;;;;;;;;;;;;;21.14;49.26;100311.00;7257162;19;153414;-54
2023/03/18 11:21:19;;;;;;;;;;;;;;;21.18;49.35;100303.56;7259343;19;155232;-54
2023/03/18 11:24:06;;;;;;;;;;;;;;;21.23;48.84;100312.66;7263591;19;153075;-54
2023/03/18 11:26:52;;;;;;;;;;;;;;;21.31;48.71;100302.56;7258633;19;153126;-54
2023/03/18 11:29:24;;;;;;;;;;;;;;;21.39;48.41;100312.19;7256633;19;153394;-54
2023/03/18 11:31:58;;;;;;;;;;;;;;;21.45;48.32;100319.28;7258677;19;152705;-54
2023/03/18 11:34:26;;;;;;;;;;;;;;;21.48;48.48;100311.03;7255980;19;153244;-54
2023/03/18 11:37:00;;;;;;;;;;;;;;;21.55;48.41;100305.72;7256006;19;152540;-54
2023/03/18 11:39:28;;;;;;;;;;;;;;;21.59;48.13;100317.97;7256539;19;152794;-54
2023/03/18 11:41:56;;;;;;;;;;;;;;;21.61;47.79;100310.03;7254889;19;152296;-54
2023/03/18 11:44:27;;;;;;;;;;;;;;;21.64;47.97;100312.19;7257496;19;153037;-54
2023/03/18 11:46:57;;;;;;;;;;;;;;;21.67;47.66;100310.69;7263821;19;153246;-54
2023/03/18 11:49:26;;;;;;;;;;;;;;;21.70;47.81;100307.22;7255361;19;153994;-53
2023/03/18 11:52:01;;;;;;;;;;;;;;;21.72;47.54;100308.53;7257417;19;154351;-53
2023/03/18 11:54:28;;;;;;;;;;;;;;;21.73;47.71;100304.56;7253061;19;152596;-53
2023/03/18 11:57:12;;;;;;;;;;;;;;;21.75;47.18;100312.69;7255303;19;153013;-54
2023/03/18 11:59:42;;;;;;;;;;;;;;;21.77;47.09;100310.34;7256351;19;152648;-54
2023/03/18 12:02:21;;;;;;;;;;;;;;;21.79;47.39;100304.41;7253876;19;156358;-54
2023/03/18 12:05:04;;;;;;;;;;;;;;;21.82;46.83;100309.34;7257598;19;152694;-54
2023/03/18 12:07:41;;;;;;;;;;;;;;;21.82;46.81;100309.34;7262993;19;153672;-54
2023/03/18 12:10:27;;;;;;;;;;;;;;;21.83;46.54;100306.22;7254906;19;153229;-54
2023/03/18 12:13:12;;;;;;;;;;;;;;;21.85;46.54;100317.13;7258791;19;153763;-54
2023/03/18 12:15:39;;;;;;;;;;;;;;;21.84;46.62;100307.88;7254861;19;154249;-54
2023/03/18 12:18:06;;;;;;;;;;;;;;;21.85;46.72;100309.50;7257615;19;153486;-54
2023/03/18 12:20:46;;;;;;;;;;;;;;;21.87;46.56;100307.19;7256726;19;153301;-54
2023/03/18 12:23:31;;;;;;;;;;;;;;;21.89;46.22;100304.06;7256789;19;153507;-54
2023/03/18 12:26:01;;;;;;;;;;;;;;;21.88;46.24;100311.66;7256669;19;153180;-54
2023/03/18 12:28:31;;;;;;;;;;;;;;;21.88;46.47;100308.03;7254202;19;153305;-54
2023/03/18 12:31:16;;;;;;;;;;;;;;;21.88;46.18;100308.03;7260351;19;153264;-54
2023/03/18 12:33:55;;;;;;;;;;;;;;;21.89;46.37;100312.50;7256868;19;153935;-54
2023/03/18 12:36:43;;;;;;;;;;;;;;;21.87;46.29;100312.81;7255968;19;153424;-54